sensor_id;sensor_type;location;lat;lon;timestamp;P1;durP1;ratioP1;P2;durP2;ratioP2
22861;SDS011;11598;50.652;6.172;2024-03-25T00:02:00;32.50;;;5.95;;
22861;SDS011;11598;50.652;6.172;2024-03-25T00:12:01;34.00;;;5.65;;
22861;SDS011;11598;50.652;6.172;2024-03-25T00:22:04;19.80;;;4.85;;
22861;SDS011;11598;50.652;6.172;2024-03-25T00:32:05;27.98;;;4.72;;
22861;SDS011;11598;50.652;6.172;2024-03-25T00:42:06;28.48;;;4.57;;
22861;SDS011;11598;50.652;6.172;2024-03-25T00:52:06;31.17;;;4.70;;
22861;SDS011;11598;50.652;6.172;2024-03-25T01:02:06;31.88;;;4.95;;
22861;SDS011;11598;50.652;6.172;2024-03-25T01:12:08;27.10;;;4.75;;
22861;SDS011;11598;50.652;6.172;2024-03-25T01:22:08;30.05;;;5.05;;
22861;SDS011;11598;50.652;6.172;2024-03-25T01:32:09;31.73;;;4.68;;
22861;SDS011;11598;50.652;6.172;2024-03-25T01:42:09;20.55;;;4.35;;
22861;SDS011;11598;50.652;6.172;2024-03-25T01:52:09;19.17;;;4.47;;
22861;SDS011;11598;50.652;6.172;2024-03-25T02:02:10;32.33;;;4.80;;
22861;SDS011;11598;50.652;6.172;2024-03-25T02:12:11;45.13;;;5.00;;
22861;SDS011;11598;50.652;6.172;2024-03-25T02:22:12;25.47;;;4.40;;
22861;SDS011;11598;50.652;6.172;2024-03-25T02:32:12;21.90;;;3.92;;
22861;SDS011;11598;50.652;6.172;2024-03-25T02:42:13;20.00;;;4.72;;
22861;SDS011;11598;50.652;6.172;2024-03-25T02:52:13;18.08;;;3.67;;
22861;SDS011;11598;50.652;6.172;2024-03-25T03:02:14;23.10;;;4.33;;
22861;SDS011;11598;50.652;6.172;2024-03-25T03:12:14;46.38;;;6.13;;
22861;SDS011;11598;50.652;6.172;2024-03-25T03:22:14;38.80;;;5.80;;
22861;SDS011;11598;50.652;6.172;2024-03-25T03:32:15;31.48;;;6.07;;
22861;SDS011;11598;50.652;6.172;2024-03-25T03:42:15;18.35;;;5.57;;
22861;SDS011;11598;50.652;6.172;2024-03-25T03:52:15;54.03;;;7.78;;
22861;SDS011;11598;50.652;6.172;2024-03-25T04:02:16;29.73;;;5.60;;
22861;SDS011;11598;50.652;6.172;2024-03-25T04:12:16;25.30;;;6.35;;
22861;SDS011;11598;50.652;6.172;2024-03-25T04:22:19;23.58;;;5.80;;
22861;SDS011;11598;50.652;6.172;2024-03-25T04:32:19;37.05;;;6.75;;
22861;SDS011;11598;50.652;6.172;2024-03-25T04:42:20;60.85;;;8.88;;
22861;SDS011;11598;50.652;6.172;2024-03-25T04:52:21;78.65;;;9.73;;
22861;SDS011;11598;50.652;6.172;2024-03-25T05:02:24;27.08;;;7.03;;
22861;SDS011;11598;50.652;6.172;2024-03-25T05:12:24;49.28;;;8.05;;
22861;SDS011;11598;50.652;6.172;2024-03-25T05:22:27;34.45;;;8.73;;
22861;SDS011;11598;50.652;6.172;2024-03-25T05:32:27;34.08;;;10.15;;
22861;SDS011;11598;50.652;6.172;2024-03-25T05:42:28;86.10;;;13.02;;
22861;SDS011;11598;50.652;6.172;2024-03-25T05:52:28;77.97;;;13.32;;
22861;SDS011;11598;50.652;6.172;2024-03-25T06:02:29;186.70;;;18.70;;
22861;SDS011;11598;50.652;6.172;2024-03-25T06:12:30;56.58;;;14.52;;
22861;SDS011;11598;50.652;6.172;2024-03-25T06:22:31;51.17;;;13.43;;
22861;SDS011;11598;50.652;6.172;2024-03-25T06:32:31;55.15;;;13.63;;
22861;SDS011;11598;50.652;6.172;2024-03-25T06:42:50;60.83;;;13.38;;
22861;SDS011;11598;50.652;6.172;2024-03-25T06:52:50;35.30;;;12.32;;
22861;SDS011;11598;50.652;6.172;2024-03-25T07:02:51;26.40;;;9.60;;
22861;SDS011;11598;50.652;6.172;2024-03-25T07:12:51;30.88;;;10.40;;
22861;SDS011;11598;50.652;6.172;2024-03-25T07:22:51;28.38;;;9.77;;
22861;SDS011;11598;50.652;6.172;2024-03-25T07:32:55;17.85;;;8.45;;
22861;SDS011;11598;50.652;6.172;2024-03-25T07:42:56;19.70;;;7.68;;
22861;SDS011;11598;50.652;6.172;2024-03-25T07:52:56;17.42;;;7.55;;
22861;SDS011;11598;50.652;6.172;2024-03-25T08:02:58;13.57;;;5.88;;
22861;SDS011;11598;50.652;6.172;2024-03-25T08:12:58;15.05;;;6.05;;
22861;SDS011;11598;50.652;6.172;2024-03-25T08:22:58;14.98;;;4.88;;
22861;SDS011;11598;50.652;6.172;2024-03-25T08:32:59;13.55;;;4.75;;
22861;SDS011;11598;50.652;6.172;2024-03-25T08:42:59;10.25;;;3.65;;
22861;SDS011;11598;50.652;6.172;2024-03-25T08:52:59;9.57;;;4.07;;
22861;SDS011;11598;50.652;6.172;2024-03-25T09:03:00;11.35;;;3.28;;
22861;SDS011;11598;50.652;6.172;2024-03-25T09:13:00;7.47;;;2.47;;
22861;SDS011;11598;50.652;6.172;2024-03-25T09:23:02;5.85;;;2.22;;
22861;SDS011;11598;50.652;6.172;2024-03-25T09:33:02;5.93;;;2.17;;
22861;SDS011;11598;50.652;6.172;2024-03-25T09:43:03;12.50;;;4.18;;
22861;SDS011;11598;50.652;6.172;2024-03-25T09:53:07;10.48;;;4.13;;
22861;SDS011;11598;50.652;6.172;2024-03-25T10:03:08;7.65;;;3.33;;
22861;SDS011;11598;50.652;6.172;2024-03-25T10:13:09;9.15;;;3.72;;
22861;SDS011;11598;50.652;6.172;2024-03-25T10:23:09;8.02;;;2.20;;
22861;SDS011;11598;50.652;6.172;2024-03-25T10:33:11;7.32;;;2.40;;
22861;SDS011;11598;50.652;6.172;2024-03-25T10:43:12;5.77;;;2.17;;
22861;SDS011;11598;50.652;6.172;2024-03-25T10:53:17;5.95;;;2.10;;
22861;SDS011;11598;50.652;6.172;2024-03-25T11:03:18;7.72;;;2.35;;
22861;SDS011;11598;50.652;6.172;2024-03-25T11:13:21;10.63;;;2.78;;
22861;SDS011;11598;50.652;6.172;2024-03-25T11:23:21;5.47;;;2.03;;
22861;SDS011;11598;50.652;6.172;2024-03-25T11:33:22;6.95;;;2.40;;
22861;SDS011;11598;50.652;6.172;2024-03-25T11:43:24;5.78;;;2.47;;
22861;SDS011;11598;50.652;6.172;2024-03-25T11:53:25;5.70;;;1.80;;
22861;SDS011;11598;50.652;6.172;2024-03-25T12:03:25;6.20;;;2.10;;
22861;SDS011;11598;50.652;6.172;2024-03-25T12:13:26;10.45;;;2.15;;
22861;SDS011;11598;50.652;6.172;2024-03-25T12:23:32;5.32;;;1.52;;
22861;SDS011;11598;50.652;6.172;2024-03-25T12:33:40;6.13;;;1.92;;
22861;SDS011;11598;50.652;6.172;2024-03-25T12:43:44;7.45;;;1.90;;
22861;SDS011;11598;50.652;6.172;2024-03-25T12:53:44;12.82;;;2.53;;
22861;SDS011;11598;50.652;6.172;2024-03-25T13:03:45;6.18;;;2.22;;
22861;SDS011;11598;50.652;6.172;2024-03-25T13:13:45;7.43;;;2.45;;
22861;SDS011;11598;50.652;6.172;2024-03-25T13:23:46;6.40;;;1.88;;
22861;SDS011;11598;50.652;6.172;2024-03-25T13:33:47;7.30;;;2.17;;
22861;SDS011;11598;50.652;6.172;2024-03-25T13:43:47;6.13;;;1.80;;
22861;SDS011;11598;50.652;6.172;2024-03-25T13:53:47;6.20;;;1.98;;
22861;SDS011;11598;50.652;6.172;2024-03-25T14:03:48;7.38;;;1.60;;
22861;SDS011;11598;50.652;6.172;2024-03-25T14:13:48;6.68;;;1.73;;
22861;SDS011;11598;50.652;6.172;2024-03-25T14:23:49;4.63;;;1.60;;
22861;SDS011;11598;50.652;6.172;2024-03-25T14:33:49;6.43;;;1.80;;
22861;SDS011;11598;50.652;6.172;2024-03-25T14:43:49;5.00;;;1.80;;
22861;SDS011;11598;50.652;6.172;2024-03-25T14:53:50;6.43;;;2.22;;
22861;SDS011;11598;50.652;6.172;2024-03-25T15:03:51;7.22;;;2.22;;
22861;SDS011;11598;50.652;6.172;2024-03-25T15:13:52;7.47;;;1.60;;
22861;SDS011;11598;50.652;6.172;2024-03-25T15:23:52;6.45;;;1.60;;
22861;SDS011;11598;50.652;6.172;2024-03-25T15:33:53;5.35;;;1.73;;
22861;SDS011;11598;50.652;6.172;2024-03-25T15:43:53;9.07;;;1.83;;
22861;SDS011;11598;50.652;6.172;2024-03-25T15:53:53;5.97;;;1.55;;
22861;SDS011;11598;50.652;6.172;2024-03-25T16:03:54;4.80;;;1.95;;
22861;SDS011;11598;50.652;6.172;2024-03-25T16:13:54;5.30;;;1.80;;
22861;SDS011;11598;50.652;6.172;2024-03-25T16:23:55;6.65;;;2.05;;
22861;SDS011;11598;50.652;6.172;2024-03-25T16:33:55;5.57;;;1.60;;
22861;SDS011;11598;50.652;6.172;2024-03-25T16:43:56;5.07;;;1.45;;
22861;SDS011;11598;50.652;6.172;2024-03-25T16:53:56;7.13;;;1.70;;
22861;SDS011;11598;50.652;6.172;2024-03-25T17:03:56;8.32;;;1.60;;
22861;SDS011;11598;50.652;6.172;2024-03-25T17:13:57;7.10;;;1.60;;
22861;SDS011;11598;50.652;6.172;2024-03-25T17:23:57;7.57;;;2.00;;
22861;SDS011;11598;50.652;6.172;2024-03-25T17:33:58;5.32;;;1.65;;
22861;SDS011;11598;50.652;6.172;2024-03-25T17:43:58;5.88;;;1.75;;
22861;SDS011;11598;50.652;6.172;2024-03-25T17:53:59;6.20;;;1.75;;
22861;SDS011;11598;50.652;6.172;2024-03-25T18:03:59;6.05;;;2.63;;
22861;SDS011;11598;50.652;6.172;2024-03-25T18:13:59;7.32;;;2.58;;
22861;SDS011;11598;50.652;6.172;2024-03-25T18:24:00;7.25;;;2.03;;
22861;SDS011;11598;50.652;6.172;2024-03-25T18:34:00;7.22;;;2.33;;
22861;SDS011;11598;50.652;6.172;2024-03-25T18:44:02;9.32;;;3.25;;
22861;SDS011;11598;50.652;6.172;2024-03-25T18:54:03;8.15;;;2.40;;
22861;SDS011;11598;50.652;6.172;2024-03-25T19:04:03;11.95;;;3.40;;
22861;SDS011;11598;50.652;6.172;2024-03-25T19:14:06;7.27;;;3.23;;
22861;SDS011;11598;50.652;6.172;2024-03-25T19:24:06;7.35;;;1.98;;
22861;SDS011;11598;50.652;6.172;2024-03-25T19:34:07;6.60;;;2.15;;
22861;SDS011;11598;50.652;6.172;2024-03-25T19:44:07;10.02;;;2.17;;
22861;SDS011;11598;50.652;6.172;2024-03-25T19:54:07;4.05;;;1.98;;
22861;SDS011;11598;50.652;6.172;2024-03-25T20:04:08;6.03;;;1.77;;
22861;SDS011;11598;50.652;6.172;2024-03-25T20:14:08;6.38;;;2.35;;
22861;SDS011;11598;50.652;6.172;2024-03-25T20:24:09;7.07;;;2.70;;
22861;SDS011;11598;50.652;6.172;2024-03-25T20:34:10;24.23;;;11.00;;
22861;SDS011;11598;50.652;6.172;2024-03-25T20:44:10;9.57;;;2.95;;
22861;SDS011;11598;50.652;6.172;2024-03-25T20:54:10;39.08;;;19.20;;
22861;SDS011;11598;50.652;6.172;2024-03-25T21:04:12;9.18;;;2.45;;
22861;SDS011;11598;50.652;6.172;2024-03-25T21:14:12;6.68;;;3.22;;
22861;SDS011;11598;50.652;6.172;2024-03-25T21:24:13;9.50;;;2.85;;
22861;SDS011;11598;50.652;6.172;2024-03-25T21:34:13;12.70;;;3.15;;
22861;SDS011;11598;50.652;6.172;2024-03-25T21:44:13;9.43;;;2.42;;
22861;SDS011;11598;50.652;6.172;2024-03-25T21:54:14;8.25;;;2.10;;
22861;SDS011;11598;50.652;6.172;2024-03-25T22:04:14;8.25;;;2.35;;
22861;SDS011;11598;50.652;6.172;2024-03-25T22:14:14;10.48;;;1.95;;
22861;SDS011;11598;50.652;6.172;2024-03-25T22:24:15;8.27;;;1.70;;
22861;SDS011;11598;50.652;6.172;2024-03-25T22:34:15;6.70;;;1.85;;
22861;SDS011;11598;50.652;6.172;2024-03-25T22:44:15;4.85;;;1.40;;
22861;SDS011;11598;50.652;6.172;2024-03-25T22:54:16;4.25;;;1.52;;
22861;SDS011;11598;50.652;6.172;2024-03-25T23:04:16;4.28;;;1.25;;
22861;SDS011;11598;50.652;6.172;2024-03-25T23:14:16;6.22;;;1.77;;
22861;SDS011;11598;50.652;6.172;2024-03-25T23:24:17;5.88;;;1.20;;
22861;SDS011;11598;50.652;6.172;2024-03-25T23:34:17;4.22;;;1.70;;
22861;SDS011;11598;50.652;6.172;2024-03-25T23:44:18;6.00;;;1.40;;
22861;SDS011;11598;50.652;6.172;2024-03-25T23:54:18;7.18;;;1.60;;
